createdAt,value
2019-03-31T00:01:39.764Z,7.00
2019-03-31T00:04:07.469Z,7.12
2019-03-31T00:06:34.269Z,6.53
2019-03-31T00:09:05.070Z,6.45
2019-03-31T00:11:32.177Z,6.53
2019-03-31T00:13:59.002Z,6.35
2019-03-31T00:16:26.576Z,7.03
2019-03-31T00:18:54.159Z,6.92
2019-03-31T00:21:21.036Z,6.65
2019-03-31T00:23:48.616Z,6.67
2019-03-31T00:26:15.670Z,6.55
2019-03-31T00:28:42.547Z,6.55
2019-03-31T00:31:21.560Z,6.47
2019-03-31T00:33:42.185Z,6.58
2019-03-31T00:36:09.978Z,6.87
2019-03-31T00:38:37.121Z,6.45
2019-03-31T00:41:05.546Z,6.12
2019-03-31T00:43:33.164Z,6.70
2019-03-31T00:46:00.127Z,7.08
2019-03-31T00:48:29.181Z,6.55
2019-03-31T00:50:56.319Z,6.58
2019-03-31T00:53:23.597Z,6.78
2019-03-31T00:55:50.439Z,6.33
2019-03-31T00:58:17.326Z,6.78
2019-03-31T01:00:45.052Z,6.42
2019-03-31T01:03:12.450Z,7.03
2019-03-31T01:05:41.416Z,6.42
2019-03-31T01:08:08.961Z,6.65
2019-03-31T01:10:36.464Z,6.62
2019-03-31T01:13:05.333Z,6.80
2019-03-31T01:15:32.799Z,6.47
2019-03-31T01:18:00.566Z,6.72
2019-03-31T01:20:28.228Z,6.42
2019-03-31T01:22:55.609Z,6.33
2019-03-31T01:25:23.096Z,6.60
2019-03-31T01:27:50.248Z,6.72
2019-03-31T01:30:19.620Z,6.60
2019-03-31T01:32:47.199Z,6.70
2019-03-31T01:35:15.775Z,6.55
2019-03-31T01:37:42.951Z,6.83
2019-03-31T01:40:10.204Z,6.80
2019-03-31T01:42:37.537Z,7.12
2019-03-31T01:45:06.559Z,7.17
2019-03-31T01:47:33.865Z,7.17
2019-03-31T01:50:01.724Z,6.97
2019-03-31T01:52:29.312Z,8.05
2019-03-31T01:54:56.186Z,7.62
2019-03-31T01:57:23.136Z,7.40
2019-03-31T01:59:50.275Z,6.83
2019-03-31T02:02:25.421Z,6.80
2019-03-31T02:04:52.588Z,6.92
2019-03-31T02:07:19.887Z,7.05
2019-03-31T02:09:46.829Z,7.40
2019-03-31T02:12:13.687Z,6.75
2019-03-31T02:14:40.995Z,6.62
2019-03-31T02:17:08.118Z,7.25
2019-03-31T02:19:35.421Z,6.83
2019-03-31T02:22:02.681Z,6.97
2019-03-31T02:24:29.582Z,6.80
2019-03-31T02:26:56.349Z,6.85
2019-03-31T02:29:23.651Z,6.87
2019-03-31T02:31:50.442Z,7.03
2019-03-31T02:34:17.632Z,6.75
2019-03-31T02:36:44.443Z,7.25
2019-03-31T02:39:11.361Z,7.35
2019-03-31T02:41:38.131Z,7.00
2019-03-31T02:44:05.157Z,7.05
2019-03-31T02:46:32.031Z,7.30
2019-03-31T02:48:58.914Z,6.95
2019-03-31T02:51:25.966Z,7.22
2019-03-31T02:53:53.498Z,6.95
2019-03-31T02:56:24.337Z,7.00
2019-03-31T02:58:54.245Z,6.90
2019-03-31T03:01:23.253Z,6.80
2019-03-31T03:03:50.567Z,7.03
2019-03-31T03:06:19.701Z,6.58
2019-03-31T03:08:48.716Z,7.05
2019-03-31T03:11:16.356Z,7.40
2019-03-31T03:13:47.859Z,7.05
2019-03-31T03:16:17.333Z,6.80
2019-03-31T03:18:44.904Z,6.65
2019-03-31T03:21:12.630Z,6.75
2019-03-31T03:23:39.906Z,7.10
2019-03-31T03:26:06.781Z,7.65
2019-03-31T03:28:34.166Z,6.60
2019-03-31T03:31:04.387Z,7.08
2019-03-31T03:33:32.165Z,6.70
2019-03-31T03:35:59.714Z,7.12
2019-03-31T03:38:26.465Z,7.40
2019-03-31T03:40:53.251Z,6.90
2019-03-31T03:43:20.220Z,6.65
2019-03-31T03:45:47.083Z,7.42
2019-03-31T03:48:13.863Z,7.58
2019-03-31T03:50:40.823Z,6.80
2019-03-31T03:53:08.143Z,7.33
2019-03-31T03:55:35.002Z,7.10
2019-03-31T03:58:01.883Z,7.20
2019-03-31T04:00:29.124Z,7.17
2019-03-31T04:02:56.128Z,7.10
2019-03-31T04:05:23.287Z,6.55
2019-03-31T04:07:50.199Z,7.20
2019-03-31T04:10:43.605Z,7.20
2019-03-31T04:13:10.707Z,7.22
2019-03-31T04:15:37.725Z,7.35
2019-03-31T04:18:04.509Z,6.92
2019-03-31T04:20:31.279Z,7.28
2019-03-31T04:22:58.198Z,7.03
2019-03-31T04:25:25.547Z,7.45
2019-03-31T04:27:52.866Z,7.40
2019-03-31T04:30:20.423Z,7.75
2019-03-31T04:32:47.475Z,8.60
2019-03-31T04:35:14.468Z,7.67
2019-03-31T04:37:41.357Z,7.37
2019-03-31T04:40:08.442Z,7.50
2019-03-31T04:42:35.422Z,8.03
2019-03-31T04:45:04.770Z,8.00
2019-03-31T04:47:31.827Z,7.40
2019-03-31T04:50:01.754Z,7.83
2019-03-31T04:52:28.689Z,7.33
2019-03-31T04:54:55.521Z,7.72
2019-03-31T04:57:22.391Z,8.23
2019-03-31T04:59:49.324Z,7.45
2019-03-31T05:02:16.492Z,7.50
2019-03-31T05:04:43.385Z,8.10
2019-03-31T05:07:10.983Z,8.08
2019-03-31T05:09:38.248Z,8.20
2019-03-31T05:12:05.136Z,8.20
2019-03-31T05:14:31.990Z,8.00
2019-03-31T05:16:58.921Z,7.67
2019-03-31T05:19:25.692Z,7.80
2019-03-31T05:21:52.975Z,8.23
2019-03-31T05:24:19.874Z,8.25
2019-03-31T05:26:47.083Z,7.60
2019-03-31T05:29:13.842Z,8.15
2019-03-31T05:31:40.952Z,8.00
2019-03-31T05:34:18.856Z,7.72
2019-03-31T05:36:36.675Z,7.80
2019-03-31T05:39:05.710Z,7.67
2019-03-31T05:41:32.489Z,8.00
2019-03-31T05:44:05.662Z,8.25
2019-03-31T05:46:28.547Z,8.40
2019-03-31T05:48:55.859Z,8.20
2019-03-31T05:51:22.856Z,7.47
2019-03-31T05:53:49.788Z,8.20
2019-03-31T05:56:16.753Z,8.00
2019-03-31T05:58:43.554Z,7.97
2019-03-31T06:01:11.041Z,8.10
2019-03-31T06:03:37.842Z,8.20
2019-03-31T06:06:04.947Z,8.20
2019-03-31T06:08:32.083Z,9.78
2019-03-31T06:10:59.250Z,12.70
2019-03-31T06:13:26.049Z,9.90
2019-03-31T06:15:53.345Z,8.45
2019-03-31T06:18:23.299Z,8.28
2019-03-31T06:20:50.295Z,8.58
2019-03-31T06:23:17.090Z,7.65
2019-03-31T06:25:44.202Z,8.08
2019-03-31T06:28:11.465Z,8.08
2019-03-31T06:30:38.391Z,8.00
2019-03-31T06:33:05.818Z,7.40
2019-03-31T06:35:32.963Z,7.83
2019-03-31T06:38:00.004Z,8.03
2019-03-31T06:40:27.152Z,8.53
2019-03-31T06:42:53.936Z,9.28
2019-03-31T06:45:20.853Z,9.20
2019-03-31T06:47:48.114Z,9.15
2019-03-31T06:50:15.563Z,8.33
2019-03-31T06:52:42.788Z,8.20
2019-03-31T06:55:10.053Z,7.80
2019-03-31T06:57:37.278Z,7.80
2019-03-31T07:00:06.306Z,7.72
2019-03-31T07:02:33.538Z,7.90
2019-03-31T07:05:01.788Z,7.37
2019-03-31T07:07:29.011Z,7.90
2019-03-31T07:09:56.745Z,7.92
2019-03-31T07:12:25.810Z,7.90
2019-03-31T07:14:52.921Z,7.90
2019-03-31T07:17:20.069Z,8.38
2019-03-31T07:19:47.061Z,7.60
2019-03-31T07:22:14.327Z,7.72
2019-03-31T07:24:41.565Z,7.58
2019-03-31T07:27:08.363Z,7.92
2019-03-31T07:29:35.452Z,8.08
2019-03-31T07:32:02.192Z,7.83
2019-03-31T07:34:29.234Z,8.00
2019-03-31T07:36:56.013Z,8.58
2019-03-31T07:39:23.057Z,8.18
2019-03-31T07:41:52.483Z,8.23
2019-03-31T07:44:21.226Z,8.25
2019-03-31T07:46:48.482Z,8.80
2019-03-31T07:49:15.832Z,8.78
2019-03-31T07:51:43.050Z,9.08
2019-03-31T07:54:10.121Z,8.60
2019-03-31T07:56:38.018Z,8.73
2019-03-31T07:59:05.157Z,8.40
2019-03-31T08:01:32.416Z,8.28
2019-03-31T08:04:00.863Z,8.05
2019-03-31T08:06:29.304Z,8.48
2019-03-31T08:08:56.212Z,7.85
2019-03-31T08:11:25.755Z,7.95
2019-03-31T08:13:55.237Z,9.03
2019-03-31T08:16:22.077Z,8.90
2019-03-31T08:18:49.376Z,8.53
2019-03-31T08:21:16.609Z,8.18
2019-03-31T08:23:47.012Z,7.83
2019-03-31T08:26:14.173Z,8.73
2019-03-31T08:28:41.523Z,9.50
2019-03-31T08:31:08.513Z,10.38
2019-03-31T08:33:35.663Z,10.08
2019-03-31T08:36:02.728Z,9.63
2019-03-31T08:38:29.981Z,10.98
2019-03-31T08:40:57.139Z,11.12
2019-03-31T08:43:24.479Z,11.30
2019-03-31T08:45:51.386Z,10.60
2019-03-31T08:48:18.398Z,11.65
2019-03-31T08:50:45.455Z,11.68
2019-03-31T08:53:12.264Z,11.53
2019-03-31T08:55:39.035Z,11.95
2019-03-31T08:58:06.027Z,11.08
2019-03-31T09:00:43.806Z,11.48
2019-03-31T09:03:11.314Z,11.33
2019-03-31T09:05:38.369Z,12.37
2019-03-31T09:08:05.230Z,12.50
2019-03-31T09:10:32.348Z,13.22
2019-03-31T09:13:00.150Z,12.25
2019-03-31T09:15:27.371Z,13.28
2019-03-31T09:17:54.616Z,15.25
2019-03-31T09:20:23.008Z,14.65
2019-03-31T09:22:50.656Z,14.63
2019-03-31T09:25:17.813Z,15.20
2019-03-31T09:27:44.901Z,15.65
2019-03-31T09:30:13.177Z,15.38
2019-03-31T09:32:40.133Z,15.38
2019-03-31T09:35:08.466Z,14.85
2019-03-31T09:37:35.908Z,14.80
2019-03-31T09:40:08.639Z,15.43
2019-03-31T09:42:39.326Z,14.75
2019-03-31T09:45:12.481Z,15.48
2019-03-31T09:47:41.149Z,14.38
2019-03-31T09:50:17.304Z,13.98
2019-03-31T09:52:46.431Z,13.55
2019-03-31T09:55:14.093Z,13.78
2019-03-31T09:57:41.674Z,13.80
2019-03-31T10:00:14.137Z,13.40
2019-03-31T10:02:41.711Z,14.50
2019-03-31T10:05:10.126Z,14.78
2019-03-31T10:07:39.296Z,15.28
2019-03-31T10:10:29.838Z,16.15
2019-03-31T10:12:58.040Z,16.45
2019-03-31T10:15:25.529Z,15.10
2019-03-31T10:17:55.273Z,15.70
2019-03-31T10:20:22.946Z,15.93
2019-03-31T10:22:50.099Z,15.83
2019-03-31T10:25:17.114Z,13.85
2019-03-31T10:27:44.259Z,14.28
2019-03-31T10:30:20.951Z,15.08
2019-03-31T10:32:47.757Z,14.90
2019-03-31T10:35:15.039Z,15.63
2019-03-31T10:37:42.188Z,13.40
2019-03-31T10:40:11.313Z,13.18
2019-03-31T10:42:38.197Z,13.05
2019-03-31T10:45:07.114Z,12.82
2019-03-31T10:47:34.286Z,13.38
2019-03-31T10:50:01.939Z,14.33
2019-03-31T10:52:29.844Z,14.20
2019-03-31T10:54:57.369Z,13.45
2019-03-31T10:57:25.647Z,14.30
2019-03-31T10:59:52.515Z,13.08
2019-03-31T11:02:19.397Z,14.83
2019-03-31T11:04:46.908Z,13.55
2019-03-31T11:07:15.156Z,14.05
2019-03-31T11:09:42.110Z,13.50
2019-03-31T11:12:08.872Z,13.98
2019-03-31T11:14:35.875Z,13.70
2019-03-31T11:17:03.013Z,14.07
2019-03-31T11:19:30.292Z,13.40
2019-03-31T11:22:04.702Z,13.40
2019-03-31T11:24:31.488Z,14.13
2019-03-31T11:26:58.358Z,14.78
2019-03-31T11:29:25.265Z,15.00
2019-03-31T11:31:52.126Z,14.83
2019-03-31T11:34:19.795Z,15.68
2019-03-31T11:36:47.398Z,15.95
2019-03-31T11:39:16.426Z,15.05
2019-03-31T11:41:43.460Z,14.68
2019-03-31T11:44:10.684Z,15.70
2019-03-31T11:46:37.930Z,15.65
2019-03-31T11:49:06.847Z,16.05
2019-03-31T11:51:33.573Z,15.23
2019-03-31T11:54:00.504Z,14.98
2019-03-31T11:56:27.421Z,14.38
2019-03-31T11:58:54.303Z,15.38
2019-03-31T12:01:21.166Z,15.75
2019-03-31T12:03:47.928Z,14.83
2019-03-31T12:06:14.833Z,14.75
2019-03-31T12:08:41.590Z,15.28
2019-03-31T12:11:08.814Z,12.60
2019-03-31T12:13:35.898Z,12.20
2019-03-31T12:16:03.318Z,11.38
2019-03-31T12:18:30.408Z,10.23
2019-03-31T12:20:59.217Z,9.75
2019-03-31T12:23:26.063Z,9.73
2019-03-31T12:25:53.020Z,9.73
2019-03-31T12:28:19.780Z,7.22
2019-03-31T12:30:46.831Z,6.72
2019-03-31T12:33:13.576Z,7.50
2019-03-31T12:35:40.568Z,7.22
2019-03-31T12:38:07.997Z,7.85
2019-03-31T12:40:35.874Z,7.15
2019-03-31T12:43:03.546Z,7.45
2019-03-31T12:45:30.467Z,7.00
2019-03-31T12:48:01.279Z,7.25
2019-03-31T12:50:27.470Z,7.87
2019-03-31T12:52:55.870Z,7.53
2019-03-31T12:55:23.093Z,7.08
2019-03-31T12:57:51.766Z,6.75
2019-03-31T13:00:19.593Z,6.67
2019-03-31T13:02:46.555Z,7.03
2019-03-31T13:05:13.302Z,6.60
2019-03-31T13:07:40.634Z,6.67
2019-03-31T13:10:09.791Z,6.67
2019-03-31T13:12:36.545Z,7.10
2019-03-31T13:15:05.459Z,7.35
2019-03-31T13:17:32.382Z,6.72
2019-03-31T13:20:01.050Z,5.65
2019-03-31T13:22:28.089Z,5.92
2019-03-31T13:24:54.865Z,5.37
2019-03-31T13:27:21.641Z,5.90
2019-03-31T13:29:49.557Z,5.97
2019-03-31T13:32:16.413Z,6.08
2019-03-31T13:34:43.304Z,6.75
2019-03-31T13:37:10.461Z,6.35
2019-03-31T13:39:37.273Z,5.97
2019-03-31T13:42:06.984Z,5.80
2019-03-31T13:44:33.775Z,5.83
2019-03-31T13:47:00.550Z,5.58
2019-03-31T13:49:27.707Z,4.85
2019-03-31T13:51:54.832Z,4.92
2019-03-31T13:54:22.136Z,4.80
2019-03-31T13:56:50.267Z,5.05
2019-03-31T13:59:17.745Z,4.58
2019-03-31T14:02:08.801Z,4.65
2019-03-31T14:04:36.983Z,4.65
2019-03-31T14:07:04.450Z,4.50
2019-03-31T14:09:31.452Z,4.75
2019-03-31T14:11:59.287Z,4.83
2019-03-31T14:14:26.270Z,4.78
2019-03-31T14:16:53.450Z,5.20
2019-03-31T14:19:20.559Z,4.72
2019-03-31T14:21:47.856Z,5.50
2019-03-31T14:24:14.989Z,5.60
2019-03-31T14:26:43.754Z,5.50
2019-03-31T14:29:10.566Z,4.60
2019-03-31T14:31:37.970Z,4.92
2019-03-31T14:34:04.968Z,4.45
2019-03-31T14:36:31.973Z,5.05
2019-03-31T14:38:59.736Z,4.80
2019-03-31T14:41:27.544Z,5.08
2019-03-31T14:43:55.189Z,4.47
2019-03-31T14:46:23.303Z,4.60
2019-03-31T14:48:50.328Z,4.78
2019-03-31T14:51:17.624Z,4.17
2019-03-31T14:53:44.625Z,4.17
2019-03-31T14:56:11.906Z,4.70
2019-03-31T14:58:39.014Z,4.15
2019-03-31T15:01:05.991Z,4.45
2019-03-31T15:03:32.746Z,6.08
2019-03-31T15:05:59.887Z,7.65
2019-03-31T15:08:27.049Z,7.03
2019-03-31T15:10:55.341Z,5.28
2019-03-31T15:13:23.581Z,4.37
2019-03-31T15:15:52.592Z,4.08
2019-03-31T15:18:20.024Z,4.55
2019-03-31T15:20:47.426Z,4.00
2019-03-31T15:23:14.223Z,4.15
2019-03-31T15:25:43.582Z,4.30
2019-03-31T15:28:10.767Z,4.12
2019-03-31T15:30:37.947Z,4.45
2019-03-31T15:33:04.936Z,3.98
2019-03-31T15:35:32.503Z,4.97
2019-03-31T15:38:00.199Z,5.12
2019-03-31T15:40:27.199Z,4.78
2019-03-31T15:42:54.149Z,4.58
2019-03-31T15:45:21.190Z,4.60
2019-03-31T15:47:47.988Z,4.55
2019-03-31T15:50:15.569Z,3.77
2019-03-31T15:55:35.757Z,4.33
2019-03-31T15:58:16.524Z,4.28
2019-03-31T16:00:44.395Z,3.52
2019-03-31T16:03:11.536Z,4.90
2019-03-31T16:05:41.102Z,4.60
2019-03-31T16:08:07.892Z,5.15
2019-03-31T16:10:34.881Z,4.60
2019-03-31T16:13:02.558Z,4.37
2019-03-31T16:15:29.967Z,4.40
2019-03-31T16:17:56.872Z,3.47
2019-03-31T16:20:23.902Z,3.85
2019-03-31T16:22:50.775Z,3.55
2019-03-31T16:25:32.415Z,3.70
2019-03-31T16:28:01.663Z,3.30
2019-03-31T16:30:30.172Z,3.33
2019-03-31T16:32:57.054Z,4.12
2019-03-31T16:35:24.225Z,4.30
2019-03-31T16:37:51.444Z,3.98
2019-03-31T16:40:18.242Z,4.33
2019-03-31T16:42:46.316Z,3.77
2019-03-31T16:45:13.549Z,4.45
2019-03-31T16:47:40.924Z,3.87
2019-03-31T16:50:08.258Z,4.03
2019-03-31T16:52:35.645Z,4.03
2019-03-31T16:55:03.828Z,3.95
2019-03-31T16:57:31.164Z,3.47
2019-03-31T16:59:58.445Z,3.72
2019-03-31T17:02:26.155Z,3.90
2019-03-31T17:04:53.305Z,3.90
2019-03-31T17:07:20.510Z,3.85
2019-03-31T17:09:51.557Z,3.72
2019-03-31T17:12:16.438Z,3.50
2019-03-31T17:14:43.349Z,3.98
2019-03-31T17:17:10.378Z,5.78
2019-03-31T17:19:37.585Z,11.95
2019-03-31T17:22:10.925Z,12.98
2019-03-31T17:24:38.234Z,23.12
2019-03-31T17:27:06.211Z,22.98
2019-03-31T17:29:33.032Z,22.10
2019-03-31T17:32:00.305Z,22.85
2019-03-31T17:34:27.221Z,17.92
2019-03-31T17:36:54.908Z,19.48
2019-03-31T17:39:24.636Z,12.33
2019-03-31T17:41:51.463Z,11.15
2019-03-31T17:44:18.713Z,10.53
2019-03-31T17:46:46.431Z,10.08
2019-03-31T17:49:13.944Z,12.10
2019-03-31T17:51:41.417Z,11.50
2019-03-31T17:54:08.973Z,10.63
2019-03-31T17:56:36.259Z,8.90
2019-03-31T17:59:03.430Z,7.45
2019-03-31T18:01:30.741Z,7.22
2019-03-31T18:03:57.654Z,7.90
2019-03-31T18:06:24.555Z,7.75
2019-03-31T18:08:51.959Z,8.70
2019-03-31T18:11:21.146Z,8.08
2019-03-31T18:13:48.626Z,6.65
2019-03-31T18:16:15.727Z,7.30
2019-03-31T18:18:43.021Z,6.05
2019-03-31T18:21:10.451Z,7.20
2019-03-31T18:23:37.575Z,7.28
2019-03-31T18:26:04.884Z,6.67
2019-03-31T18:28:31.671Z,7.05
2019-03-31T18:30:58.853Z,7.53
2019-03-31T18:33:26.421Z,7.62
2019-03-31T18:35:53.950Z,6.90
2019-03-31T18:38:21.233Z,5.75
2019-03-31T18:40:48.410Z,5.90
2019-03-31T18:43:16.819Z,5.58
2019-03-31T18:45:43.911Z,5.30
2019-03-31T18:48:11.137Z,5.33
2019-03-31T18:50:38.016Z,5.20
2019-03-31T18:53:06.351Z,5.00
2019-03-31T18:55:54.111Z,5.08
2019-03-31T18:58:35.139Z,4.17
2019-03-31T19:01:10.479Z,4.05
2019-03-31T19:03:55.412Z,4.05
2019-03-31T19:06:24.549Z,4.08
2019-03-31T19:08:51.358Z,4.17
2019-03-31T19:11:30.589Z,4.35
2019-03-31T19:14:05.382Z,4.67
2019-03-31T19:16:47.177Z,4.65
2019-03-31T19:19:31.569Z,4.30
2019-03-31T19:22:08.056Z,4.90
2019-03-31T19:24:51.974Z,5.20
2019-03-31T19:27:35.732Z,4.67
2019-03-31T19:30:15.688Z,5.25
2019-03-31T19:32:46.719Z,4.90
2019-03-31T19:35:21.290Z,4.90
2019-03-31T19:37:53.411Z,5.05
2019-03-31T19:40:26.812Z,5.23
2019-03-31T19:43:01.401Z,5.65
2019-03-31T19:45:33.361Z,4.90
2019-03-31T19:48:03.972Z,5.30
2019-03-31T19:50:31.007Z,5.30
2019-03-31T19:53:00.049Z,5.33
2019-03-31T19:55:48.752Z,5.17
2019-03-31T19:58:36.345Z,5.42
2019-03-31T20:01:16.387Z,5.40
2019-03-31T20:03:49.521Z,4.92
2019-03-31T20:06:31.162Z,5.00
2019-03-31T20:09:00.266Z,5.05
2019-03-31T20:11:36.175Z,5.15
2019-03-31T20:14:09.634Z,5.30
2019-03-31T20:16:45.208Z,5.17
2019-03-31T20:19:12.311Z,5.40
2019-03-31T20:21:50.203Z,5.20
2019-03-31T20:24:17.418Z,5.08
2019-03-31T20:26:46.809Z,5.15
2019-03-31T20:29:16.860Z,5.05
2019-03-31T20:31:53.179Z,5.17
2019-03-31T20:34:25.758Z,5.50
2019-03-31T20:37:11.611Z,5.70
2019-03-31T20:39:57.117Z,5.55
2019-03-31T20:42:44.525Z,5.40
2019-03-31T20:45:23.366Z,5.42
2019-03-31T20:47:50.368Z,5.30
2019-03-31T20:50:17.464Z,5.47
2019-03-31T20:52:45.163Z,5.28
2019-03-31T20:55:16.436Z,5.70
2019-03-31T20:57:41.595Z,5.35
2019-03-31T21:00:10.196Z,5.60
2019-03-31T21:02:36.961Z,5.60
2019-03-31T21:05:05.229Z,5.78
2019-03-31T21:07:32.747Z,6.50
2019-03-31T21:10:00.348Z,6.37
2019-03-31T21:12:27.339Z,6.37
2019-03-31T21:14:54.575Z,6.60
2019-03-31T21:17:22.820Z,6.17
2019-03-31T21:19:50.171Z,6.15
2019-03-31T21:22:17.498Z,6.15
2019-03-31T21:24:44.520Z,6.53
2019-03-31T21:27:11.794Z,6.15
2019-03-31T21:29:40.715Z,6.35
2019-03-31T21:32:07.575Z,6.05
2019-03-31T21:34:35.051Z,6.10
2019-03-31T21:37:02.106Z,5.97
2019-03-31T21:39:29.120Z,6.53
2019-03-31T21:41:56.163Z,6.33
2019-03-31T21:44:25.066Z,6.22
2019-03-31T21:46:51.949Z,6.37
2019-03-31T21:49:19.352Z,6.33
2019-03-31T21:51:57.241Z,6.70
2019-03-31T21:54:28.893Z,7.62
2019-03-31T21:57:07.383Z,7.37
2019-03-31T21:59:43.387Z,6.80
2019-03-31T22:02:13.064Z,7.12
2019-03-31T22:04:39.976Z,7.12
2019-03-31T22:07:07.237Z,7.40
2019-03-31T22:09:34.423Z,7.87
2019-03-31T22:12:01.504Z,8.08
2019-03-31T22:14:28.325Z,7.87
2019-03-31T22:16:55.173Z,7.97
2019-03-31T22:19:22.056Z,8.95
2019-03-31T22:21:48.961Z,8.85
2019-03-31T22:24:16.312Z,8.25
2019-03-31T22:26:43.362Z,9.15
2019-03-31T22:29:10.587Z,8.50
2019-03-31T22:31:40.060Z,8.13
2019-03-31T22:34:09.012Z,8.73
2019-03-31T22:36:37.603Z,8.38
2019-03-31T22:39:06.129Z,8.00
2019-03-31T22:41:33.692Z,7.92
2019-03-31T22:44:00.503Z,8.40
2019-03-31T22:46:27.377Z,8.48
2019-03-31T22:48:54.149Z,8.75
2019-03-31T22:51:20.921Z,8.55
2019-03-31T22:53:47.733Z,8.95
2019-03-31T22:56:14.720Z,7.95
2019-03-31T22:58:41.899Z,7.87
2019-03-31T23:01:08.897Z,8.20
2019-03-31T23:03:36.745Z,7.87
2019-03-31T23:06:03.819Z,8.38
2019-03-31T23:08:30.907Z,8.35
2019-03-31T23:10:58.668Z,10.82
2019-03-31T23:13:25.552Z,9.35
2019-03-31T23:15:52.714Z,8.65
2019-03-31T23:18:19.612Z,8.43
2019-03-31T23:20:46.957Z,9.35
2019-03-31T23:23:14.324Z,11.25
2019-03-31T23:25:41.202Z,11.53
2019-03-31T23:28:08.160Z,11.53
2019-03-31T23:30:35.355Z,10.90
2019-03-31T23:33:02.113Z,10.82
2019-03-31T23:35:29.162Z,12.33
2019-03-31T23:37:56.200Z,12.07
2019-03-31T23:40:23.474Z,11.18
2019-03-31T23:42:50.371Z,12.20
2019-03-31T23:45:17.391Z,12.03
2019-03-31T23:47:45.184Z,12.53
2019-03-31T23:50:12.579Z,12.73
2019-03-31T23:52:39.825Z,11.48
2019-03-31T23:55:06.930Z,12.40
2019-03-31T23:57:42.951Z,11.43
